Time;durP1;ratioP1;P1;durP2;ratioP2;P2;SDS_P1;SDS_P2;PMS_P1;PMS_P2;Temp;Humidity;BMP_temperature;BMP_pressure;BME280_temperature;BME280_humidity;BME280_pressure;Samples;Min_cycle;Max_cycle;Signal;HPM_P1;HPM_P2
2022/03/22 00:00:36;;;;;;;33.72;17.65;;;12.00;62.80;;;;;;5133189;28;20087;-65
2022/03/22 00:03:05;;;;;;;32.83;17.00;;;12.00;62.80;;;;;;5134346;28;20027;-65
2022/03/22 00:05:31;;;;;;;31.50;16.25;;;11.80;62.50;;;;;;5134308;27;20041;-65
2022/03/22 00:07:57;;;;;;;34.58;18.17;;;11.70;63.20;;;;;;5133090;28;20059;-65
2022/03/22 00:10:23;;;;;;;31.35;17.45;;;11.60;63.20;;;;;;5134042;28;20027;-65
2022/03/22 00:12:49;;;;;;;32.08;17.15;;;11.50;63.60;;;;;;5132966;28;20035;-65
2022/03/22 00:15:15;;;;;;;32.67;18.48;;;11.40;64.70;;;;;;5133809;28;20050;-66
2022/03/22 00:17:41;;;;;;;32.70;17.27;;;11.40;63.90;;;;;;5132849;28;20024;-65
2022/03/22 00:20:10;;;;;;;36.50;19.05;;;11.40;63.90;;;;;;5133021;28;20027;-65
2022/03/22 00:22:39;;;;;;;35.88;18.00;;;11.40;63.90;;;;;;5133244;28;20079;-65
2022/03/22 00:25:07;;;;;;;35.10;20.17;;;11.30;64.00;;;;;;5133896;28;20040;-66
2022/03/22 00:27:50;;;;;;;37.03;18.90;;;11.20;64.40;;;;;;5132736;28;20016;-65
2022/03/22 00:30:18;;;;;;;32.05;17.92;;;11.20;64.20;;;;;;5133921;28;20023;-65
2022/03/22 00:32:43;;;;;;;33.85;18.50;;;11.20;64.00;;;;;;5133749;28;20036;-65
2022/03/22 00:35:09;;;;;;;32.42;18.30;;;11.20;63.80;;;;;;5133739;28;20392;-65
2022/03/22 00:37:41;;;;;;;33.60;19.17;;;11.30;63.60;;;;;;5133855;28;20031;-65
2022/03/22 00:40:15;;;;;;;36.65;19.23;;;11.30;63.50;;;;;;5133945;28;20083;-65
2022/03/22 00:42:40;;;;;;;37.22;19.20;;;11.30;63.80;;;;;;5132668;28;20027;-65
2022/03/22 00:45:07;;;;;;;35.78;20.33;;;11.20;64.30;;;;;;5133732;28;20028;-65
2022/03/22 00:47:33;;;;;;;45.15;21.20;;;11.20;64.40;;;;;;5133706;28;20023;-65
2022/03/22 00:49:58;;;;;;;42.88;20.80;;;11.20;64.80;;;;;;5133598;28;20353;-65
2022/03/22 00:52:25;;;;;;;39.03;20.08;;;11.20;64.70;;;;;;5133557;28;20080;-65
2022/03/22 00:54:51;;;;;;;36.78;20.08;;;11.10;64.70;;;;;;5132565;28;20031;-65
2022/03/22 00:57:18;;;;;;;42.75;20.08;;;11.00;65.60;;;;;;5132564;28;20061;-65
2022/03/22 01:00:01;;;;;;;39.90;21.02;;;10.80;65.80;;;;;;5133549;28;20039;-65
2022/03/22 01:02:27;;;;;;;37.75;20.75;;;10.80;66.20;;;;;;5133579;28;20050;-65
2022/03/22 01:04:53;;;;;;;40.92;21.25;;;10.80;66.50;;;;;;5133524;28;20024;-65
2022/03/22 01:07:20;;;;;;;41.10;21.83;;;10.80;66.70;;;;;;5133460;28;20495;-65
2022/03/22 01:09:46;;;;;;;41.55;21.23;;;10.90;66.60;;;;;;5133453;28;20019;-65
2022/03/22 01:12:11;;;;;;;41.88;21.55;;;10.90;66.70;;;;;;5133106;28;20099;-65
2022/03/22 01:14:38;;;;;;;40.03;21.65;;;11.00;66.60;;;;;;5132296;28;20028;-66
2022/03/22 01:17:06;;;;;;;45.28;21.10;;;10.90;66.40;;;;;;5133472;28;20024;-65
2022/03/22 01:19:32;;;;;;;42.10;20.27;;;11.00;66.30;;;;;;5133360;28;20088;-65
2022/03/22 01:21:59;;;;;;;36.30;19.45;;;10.90;65.90;;;;;;5133140;28;20058;-65
2022/03/22 01:24:26;;;;;;;30.95;17.27;;;10.80;66.60;;;;;;5133325;28;20020;-65
2022/03/22 01:26:52;;;;;;;37.53;18.58;;;10.80;65.50;;;;;;5133309;28;20024;-65
2022/03/22 01:29:18;;;;;;;38.80;20.02;;;10.60;65.30;;;;;;5133216;28;20053;-65
2022/03/22 01:31:44;;;;;;;40.25;20.38;;;10.40;65.80;;;;;;5133417;28;20027;-65
2022/03/22 01:34:11;;;;;;;40.83;21.45;;;10.40;67.00;;;;;;5135096;28;20024;-65
2022/03/22 01:36:36;;;;;;;39.70;20.67;;;10.30;67.50;;;;;;5137015;28;20024;-66
2022/03/22 01:39:03;;;;;;;40.05;20.90;;;10.40;67.60;;;;;;5118911;28;20051;-65
2022/03/22 01:41:29;;;;;;;39.05;20.73;;;10.40;67.40;;;;;;5135828;28;20031;-65
2022/03/22 01:43:55;;;;;;;38.97;20.33;;;10.50;67.10;;;;;;5136867;28;20034;-65
2022/03/22 01:46:25;;;;;;;40.75;20.95;;;10.50;66.70;;;;;;5135869;28;20055;-65
2022/03/22 01:48:52;;;;;;;37.15;19.33;;;10.60;66.20;;;;;;5136936;28;20024;-65
2022/03/22 01:51:22;;;;;;;37.75;19.55;;;10.60;65.90;;;;;;5136704;28;20024;-65
2022/03/22 01:53:49;;;;;;;36.92;19.75;;;10.60;65.60;;;;;;5135686;28;20051;-65
2022/03/22 01:56:16;;;;;;;40.05;21.58;;;10.60;66.10;;;;;;5135701;28;20020;-66
2022/03/22 01:58:42;;;;;;;42.70;21.13;;;10.40;66.80;;;;;;5135743;28;20023;-65
2022/03/22 02:06:39;;;;;;;37.40;20.13;;;10.00;67.90;;;;;;5136561;28;20070;-65
2022/03/22 02:09:04;;;;;;;34.42;17.90;;;10.10;67.80;;;;;;5136345;28;20024;-65
2022/03/22 02:11:31;;;;;;;36.33;19.10;;;10.20;67.70;;;;;;5136326;28;20106;-65
2022/03/22 02:13:57;;;;;;;32.78;18.23;;;10.10;67.70;;;;;;5135157;28;20065;-65
2022/03/22 02:16:22;;;;;;;30.65;16.00;;;10.10;67.60;;;;;;5135123;28;20043;-65
2022/03/22 02:18:51;;;;;;;29.17;16.20;;;10.00;67.10;;;;;;5136157;28;20030;-65
2022/03/22 02:21:18;;;;;;;30.23;16.55;;;9.90;66.80;;;;;;5135173;28;20016;-65
2022/03/22 02:23:51;;;;;;;31.08;17.48;;;10.00;66.80;;;;;;5136100;28;20028;-65
2022/03/22 02:26:20;;;;;;;32.35;17.52;;;10.00;66.50;;;;;;5135024;28;20042;-65
2022/03/22 02:28:46;;;;;;;33.33;17.73;;;10.10;66.10;;;;;;5134893;28;20023;-65
2022/03/22 02:31:15;;;;;;;36.22;18.65;;;10.00;66.00;;;;;;5135928;27;20035;-65
2022/03/22 02:33:43;;;;;;;34.15;17.25;;;10.00;65.90;;;;;;5135771;28;20039;-66
2022/03/22 02:36:10;;;;;;;36.45;18.40;;;10.00;66.00;;;;;;5135835;28;20023;-66
2022/03/22 02:38:36;;;;;;;31.40;17.05;;;10.10;66.20;;;;;;5135804;28;20016;-66
2022/03/22 02:41:03;;;;;;;32.45;16.30;;;10.10;66.30;;;;;;5134626;28;20035;-67
2022/03/22 02:43:29;;;;;;;29.88;16.27;;;10.10;66.30;;;;;;5135846;28;20028;-66
2022/03/22 02:45:55;;;;;;;33.33;17.25;;;10.10;65.80;;;;;;5134057;28;20028;-66
2022/03/22 02:48:20;;;;;;;32.50;17.55;;;10.20;65.70;;;;;;5134718;28;20050;-65
2022/03/22 02:50:46;;;;;;;29.90;16.85;;;10.10;66.60;;;;;;5135546;28;20039;-65
2022/03/22 02:53:12;;;;;;;34.40;17.95;;;9.90;66.00;;;;;;5135400;28;20086;-65
2022/03/22 02:55:37;;;;;;;32.75;16.95;;;9.80;66.20;;;;;;5135440;28;20023;-65
2022/03/22 02:58:04;;;;;;;29.33;16.20;;;9.70;66.40;;;;;;5134448;28;20020;-65
2022/03/22 03:00:30;;;;;;;28.23;15.23;;;9.60;66.60;;;;;;5135316;28;20039;-65
2022/03/22 03:02:56;;;;;;;30.02;16.48;;;9.70;66.60;;;;;;5135376;28;20054;-65
2022/03/22 03:05:23;;;;;;;29.25;15.90;;;9.80;66.40;;;;;;5135424;28;20034;-65
2022/03/22 03:07:51;;;;;;;29.42;16.13;;;9.90;66.10;;;;;;5134198;28;20047;-65
2022/03/22 03:10:16;;;;;;;29.35;15.65;;;10.00;65.50;;;;;;5135340;28;20027;-65
2022/03/22 03:12:42;;;;;;;30.48;16.50;;;10.00;65.10;;;;;;5135044;28;20073;-65
2022/03/22 03:15:09;;;;;;;30.63;16.42;;;10.00;65.00;;;;;;5134956;28;20066;-65
2022/03/22 03:17:36;;;;;;;28.63;17.15;;;10.00;65.00;;;;;;5134054;28;20023;-65
2022/03/22 03:20:03;;;;;;;32.90;18.30;;;10.00;65.10;;;;;;5133918;28;20035;-65
2022/03/22 03:22:28;;;;;;;33.63;16.38;;;9.90;65.10;;;;;;5134945;28;20053;-65
2022/03/22 03:24:54;;;;;;;29.40;15.98;;;9.80;65.20;;;;;;5134847;28;20032;-65
2022/03/22 03:27:21;;;;;;;27.83;15.35;;;9.50;65.40;;;;;;5134861;28;20024;-65
2022/03/22 03:29:46;;;;;;;28.27;16.05;;;9.40;66.00;;;;;;5134751;28;20019;-65
2022/03/22 03:32:12;;;;;;;26.67;15.82;;;9.20;66.70;;;;;;5133694;28;20087;-65
2022/03/22 03:34:38;;;;;;;28.52;15.10;;;9.20;66.70;;;;;;5133652;28;20031;-65
2022/03/22 03:37:04;;;;;;;27.55;14.35;;;9.20;66.50;;;;;;5134621;28;20488;-65
2022/03/22 03:39:30;;;;;;;27.67;15.15;;;9.20;66.50;;;;;;5134582;28;20023;-65
2022/03/22 03:41:59;;;;;;;29.17;15.23;;;9.20;66.40;;;;;;5134546;28;20055;-65
2022/03/22 03:47:13;;;;;;;29.85;15.27;;;9.00;66.70;;;;;;5134489;28;20031;-65
2022/03/22 03:49:46;;;;;;;27.60;15.05;;;8.90;66.70;;;;;;5134374;28;20023;-65
2022/03/22 03:52:16;;;;;;;31.00;15.68;;;8.80;67.00;;;;;;5134595;28;20073;-65
2022/03/22 03:54:43;;;;;;;29.65;15.60;;;8.70;67.50;;;;;;5134376;28;20049;-65
2022/03/22 03:57:09;;;;;;;30.25;15.15;;;8.80;67.50;;;;;;5133390;28;20598;-65
2022/03/22 03:59:36;;;;;;;28.58;14.93;;;8.90;67.30;;;;;;5133299;28;20028;-65
2022/03/22 04:02:04;;;;;;;28.55;14.55;;;8.90;67.50;;;;;;5134229;28;20069;-65
2022/03/22 04:04:30;;;;;;;25.58;14.50;;;8.90;67.10;;;;;;5133175;28;20023;-65
2022/03/22 04:06:56;;;;;;;29.33;15.35;;;9.00;66.90;;;;;;5133232;28;20034;-65
2022/03/22 04:09:21;;;;;;;28.42;14.98;;;9.00;66.40;;;;;;5134122;28;20039;-65
2022/03/22 04:11:47;;;;;;;24.63;14.68;;;9.10;66.40;;;;;;5134108;28;20032;-65
2022/03/22 04:14:13;;;;;;;27.55;14.63;;;9.10;66.20;;;;;;5133910;28;20087;-65
2022/03/22 04:16:40;;;;;;;27.95;14.85;;;9.10;66.20;;;;;;5133128;28;20047;-65
2022/03/22 04:19:08;;;;;;;24.52;14.00;;;9.10;66.00;;;;;;5133985;28;20041;-65
2022/03/22 04:21:37;;;;;;;27.45;14.23;;;9.10;65.80;;;;;;5133983;28;20038;-65
2022/03/22 04:24:09;;;;;;;25.35;13.60;;;9.10;65.70;;;;;;5133924;28;20079;-65
2022/03/22 04:26:44;;;;;;;29.60;14.93;;;9.10;65.50;;;;;;5133914;28;20019;-65
2022/03/22 04:34:44;;;;;;;30.58;16.95;;;9.00;66.00;;;;;;5133079;28;20122;-65
2022/03/22 04:37:13;;;;;;;31.77;16.13;;;8.90;67.00;;;;;;5133915;28;20023;-65
2022/03/22 04:39:40;;;;;;;28.10;15.30;;;8.80;67.40;;;;;;5133784;28;20522;-65
2022/03/22 04:42:06;;;;;;;30.15;16.00;;;8.70;67.70;;;;;;5133598;28;20080;-65
2022/03/22 04:44:32;;;;;;;35.15;16.55;;;8.60;67.80;;;;;;5133601;28;20028;-65
2022/03/22 04:46:59;;;;;;;32.08;15.88;;;8.60;68.10;;;;;;5133698;28;20054;-65
2022/03/22 04:49:26;;;;;;;27.98;14.52;;;8.60;68.00;;;;;;5133698;28;20035;-65
2022/03/22 04:57:23;;;;;;;34.25;16.33;;;8.60;67.40;;;;;;5133812;28;20110;-65
2022/03/22 04:59:48;;;;;;;28.20;15.60;;;8.50;68.00;;;;;;5133573;28;20027;-65
2022/03/22 05:02:15;;;;;;;30.13;14.82;;;8.40;68.40;;;;;;5133541;28;20020;-65
2022/03/22 05:04:42;;;;;;;31.13;16.52;;;8.20;69.00;;;;;;5133563;28;20044;-65
2022/03/22 05:07:07;;;;;;;30.42;16.63;;;8.30;69.20;;;;;;5133612;28;20020;-65
2022/03/22 05:09:34;;;;;;;30.98;15.93;;;8.30;69.10;;;;;;5136173;28;20030;-65
2022/03/22 05:12:01;;;;;;;30.58;15.30;;;8.30;69.20;;;;;;5137464;28;20115;-65
2022/03/22 05:14:26;;;;;;;34.92;17.30;;;8.30;69.10;;;;;;5137449;28;20106;-65
2022/03/22 05:16:55;;;;;;;29.20;15.35;;;8.30;69.30;;;;;;5137473;28;20043;-65
2022/03/22 05:19:21;;;;;;;35.85;15.63;;;8.20;69.10;;;;;;5137356;28;20069;-65
2022/03/22 05:21:47;;;;;;;27.90;14.25;;;8.20;68.90;;;;;;5137281;28;20027;-65
2022/03/22 05:24:12;;;;;;;31.83;16.08;;;8.20;68.80;;;;;;5136376;28;20023;-65
2022/03/22 05:26:38;;;;;;;28.83;15.10;;;8.20;68.90;;;;;;5119182;28;20043;-65
2022/03/22 05:29:04;;;;;;;28.80;15.40;;;8.30;69.10;;;;;;5137046;28;20058;-65
2022/03/22 05:31:31;;;;;;;28.23;15.48;;;8.30;68.80;;;;;;5137169;28;20028;-65
2022/03/22 05:33:58;;;;;;;30.88;16.02;;;8.10;69.00;;;;;;5137031;28;20027;-65
2022/03/22 05:36:24;;;;;;;32.35;15.93;;;8.10;69.20;;;;;;5137059;28;20060;-65
2022/03/22 05:38:50;;;;;;;27.98;14.98;;;8.00;69.30;;;;;;5136939;28;20491;-65
2022/03/22 05:41:16;;;;;;;29.98;15.27;;;8.10;69.30;;;;;;5135911;28;20115;-65
2022/03/22 05:43:42;;;;;;;30.90;14.98;;;8.20;69.30;;;;;;5136904;28;20028;-65
2022/03/22 05:46:09;;;;;;;30.92;15.30;;;8.20;69.50;;;;;;5136850;28;20087;-65
2022/03/22 05:48:38;;;;;;;33.08;15.27;;;8.10;69.40;;;;;;5136776;28;20039;-65
2022/03/22 05:51:04;;;;;;;29.17;14.02;;;8.10;69.20;;;;;;5136638;28;20049;-65
2022/03/22 05:53:30;;;;;;;34.55;15.43;;;8.00;69.10;;;;;;5135640;28;20032;-65
2022/03/22 05:55:55;;;;;;;24.85;14.75;;;8.10;69.20;;;;;;5135600;28;20024;-65
2022/03/22 05:58:21;;;;;;;26.75;13.90;;;8.20;69.10;;;;;;5136601;28;20019;-65
2022/03/22 06:00:47;;;;;;;30.67;15.55;;;8.30;68.60;;;;;;5135584;28;20020;-65
2022/03/22 06:03:14;;;;;;;27.13;15.43;;;8.30;68.30;;;;;;5136516;28;20028;-66
2022/03/22 06:05:39;;;;;;;32.75;15.65;;;8.40;68.30;;;;;;5136462;28;20027;-65
2022/03/22 06:08:05;;;;;;;28.50;15.23;;;8.40;68.30;;;;;;5136452;28;20031;-65
2022/03/22 06:10:31;;;;;;;32.17;14.68;;;8.30;68.70;;;;;;5135412;28;20031;-65
2022/03/22 06:12:57;;;;;;;29.85;14.57;;;8.30;68.60;;;;;;5136266;27;20031;-65
2022/03/22 06:15:31;;;;;;;30.40;15.60;;;8.30;69.00;;;;;;5134821;28;20040;-65
2022/03/22 06:18:02;;;;;;;29.83;15.25;;;8.20;69.20;;;;;;5136238;28;20020;-65
2022/03/22 06:20:33;;;;;;;31.52;15.38;;;8.20;69.30;;;;;;5135117;28;20028;-65
2022/03/22 06:23:00;;;;;;;28.27;14.68;;;8.00;69.80;;;;;;5135224;28;20027;-65
2022/03/22 06:25:26;;;;;;;31.05;16.25;;;8.00;70.10;;;;;;5136125;28;20083;-65
2022/03/22 06:27:53;;;;;;;33.40;15.98;;;8.10;70.00;;;;;;5135937;27;20065;-65
2022/03/22 06:30:20;;;;;;;38.20;16.45;;;8.30;69.70;;;;;;5135898;28;20028;-65
2022/03/22 06:32:46;;;;;;;33.10;16.95;;;8.40;69.50;;;;;;5134818;28;20400;-65
2022/03/22 06:35:18;;;;;;;35.33;16.50;;;8.40;69.30;;;;;;5134872;28;20027;-65
2022/03/22 06:37:45;;;;;;;36.35;17.67;;;8.50;69.60;;;;;;5135904;28;20392;-65
2022/03/22 06:40:12;;;;;;;32.67;17.42;;;8.40;69.80;;;;;;5135756;27;20050;-65
2022/03/22 06:42:38;;;;;;;36.83;17.45;;;8.40;70.20;;;;;;5135724;28;20027;-66
2022/03/22 06:45:05;;;;;;;33.88;17.02;;;8.40;70.50;;;;;;5135680;28;20069;-65
2022/03/22 06:47:32;;;;;;;35.28;17.10;;;8.30;70.80;;;;;;5135632;28;20026;-65
2022/03/22 06:49:58;;;;;;;38.53;17.23;;;8.40;70.90;;;;;;5135573;28;20444;-65
2022/03/22 06:52:24;;;;;;;35.53;17.23;;;8.50;71.20;;;;;;5135511;28;20075;-66
2022/03/22 06:54:50;;;;;;;33.63;17.50;;;8.50;71.10;;;;;;5135337;28;20047;-65
2022/03/22 06:57:15;;;;;;;34.10;16.35;;;8.40;71.50;;;;;;5134393;28;20015;-65
2022/03/22 06:59:41;;;;;;;32.55;17.17;;;8.40;71.80;;;;;;5134359;28;20027;-65
2022/03/22 07:02:10;;;;;;;35.00;17.58;;;8.50;71.90;;;;;;5134306;28;20032;-66
2022/03/22 07:04:36;;;;;;;34.88;18.23;;;8.60;71.80;;;;;;5135352;28;20027;-65
2022/03/22 07:07:02;;;;;;;35.75;18.88;;;8.70;71.60;;;;;;5135234;28;20032;-65
2022/03/22 07:09:28;;;;;;;40.83;19.23;;;8.80;71.50;;;;;;5135358;28;20027;-65
2022/03/22 07:11:56;;;;;;;39.08;18.40;;;8.90;71.80;;;;;;5135160;28;20057;-65
2022/03/22 07:14:24;;;;;;;35.25;19.17;;;8.90;71.80;;;;;;5135089;28;20099;-65
2022/03/22 07:16:51;;;;;;;39.05;17.90;;;9.00;71.70;;;;;;5135000;28;20055;-65
2022/03/22 07:19:18;;;;;;;38.35;19.08;;;9.10;71.40;;;;;;5135047;28;20043;-65
2022/03/22 07:21:45;;;;;;;40.45;19.55;;;9.20;70.90;;;;;;5134992;28;20012;-65
2022/03/22 07:24:12;;;;;;;39.20;19.10;;;9.30;70.80;;;;;;5134948;28;20020;-66
2022/03/22 07:26:39;;;;;;;38.83;19.02;;;9.40;70.70;;;;;;5134979;28;20049;-65
2022/03/22 07:29:05;;;;;;;38.08;19.50;;;9.50;70.30;;;;;;5134742;28;20027;-65
2022/03/22 07:31:37;;;;;;;34.80;19.40;;;9.50;69.80;;;;;;5133490;28;20028;-65
2022/03/22 07:34:07;;;;;;;38.92;20.00;;;9.70;70.00;;;;;;5134761;28;20024;-65
2022/03/22 07:36:36;;;;;;;34.60;19.08;;;9.70;69.30;;;;;;5134679;28;20020;-65
2022/03/22 07:39:03;;;;;;;36.13;18.33;;;9.80;69.30;;;;;;5134654;28;20103;-66
2022/03/22 07:41:28;;;;;;;37.50;19.55;;;9.80;68.90;;;;;;5134629;28;20044;-65
2022/03/22 07:43:54;;;;;;;42.28;18.20;;;9.90;68.50;;;;;;5134610;28;20015;-65
2022/03/22 07:46:23;;;;;;;36.40;19.30;;;10.00;68.10;;;;;;5133632;28;20028;-66
2022/03/22 07:48:50;;;;;;;39.50;19.10;;;10.00;67.00;;;;;;5134506;28;20085;-65
2022/03/22 07:54:02;;;;;;;37.00;18.55;;;10.20;66.00;;;;;;5134492;28;20030;-65
2022/03/22 07:56:27;;;;;;;35.67;17.63;;;10.30;67.10;;;;;;5134326;28;20033;-65
2022/03/22 07:58:53;;;;;;;30.63;17.77;;;10.40;66.20;;;;;;5133434;28;20441;-65
2022/03/22 08:01:19;;;;;;;37.33;17.75;;;10.50;66.60;;;;;;5133383;28;20027;-65
2022/03/22 08:03:45;;;;;;;36.33;18.40;;;10.60;64.50;;;;;;5134236;28;20030;-65
2022/03/22 08:06:11;;;;;;;36.78;18.42;;;10.70;64.20;;;;;;5134164;28;20035;-65
2022/03/22 08:08:43;;;;;;;35.58;17.98;;;10.80;63.30;;;;;;5134198;28;20024;-66
2022/03/22 08:11:09;;;;;;;31.98;17.33;;;10.90;62.30;;;;;;5134116;28;20031;-66
2022/03/22 08:13:37;;;;;;;33.28;17.55;;;11.00;63.70;;;;;;5133901;27;20043;-65
2022/03/22 08:16:04;;;;;;;37.08;18.38;;;11.10;63.70;;;;;;5132881;28;20492;-66
2022/03/22 08:18:30;;;;;;;32.72;17.65;;;11.20;62.10;;;;;;5134008;28;20073;-66
2022/03/22 08:20:56;;;;;;;32.33;16.58;;;11.30;61.40;;;;;;5133949;28;20024;-65
2022/03/22 08:23:22;;;;;;;31.48;17.02;;;11.40;60.30;;;;;;5133887;28;20055;-66
2022/03/22 08:25:49;;;;;;;33.28;18.20;;;11.50;61.40;;;;;;5133888;28;20028;-66
2022/03/22 08:28:16;;;;;;;34.25;17.50;;;11.60;61.00;;;;;;5133808;28;20026;-66
2022/03/22 08:30:42;;;;;;;29.27;16.33;;;11.80;60.20;;;;;;5133855;28;20043;-66
2022/03/22 08:33:09;;;;;;;32.22;16.75;;;11.90;59.30;;;;;;5132863;28;20053;-67
2022/03/22 08:35:40;;;;;;;32.03;16.95;;;12.00;60.30;;;;;;5133924;28;20026;-67
2022/03/22 08:38:06;;;;;;;34.15;16.92;;;12.20;58.60;;;;;;5133818;28;20012;-66
2022/03/22 08:40:32;;;;;;;29.05;16.60;;;12.30;58.20;;;;;;5133798;28;20012;-66
2022/03/22 08:42:58;;;;;;;30.67;16.17;;;12.40;56.80;;;;;;5133937;28;20031;-66
2022/03/22 08:45:27;;;;;;;28.92;16.35;;;12.50;59.20;;;;;;5137944;28;20094;-66
2022/03/22 08:47:54;;;;;;;34.05;17.23;;;12.70;57.20;;;;;;5137976;28;20026;-66
2022/03/22 08:50:22;;;;;;;33.25;17.25;;;12.80;55.80;;;;;;5137890;28;20436;-66
2022/03/22 08:52:49;;;;;;;33.58;16.80;;;13.00;56.60;;;;;;5137908;28;20075;-66
2022/03/22 08:55:17;;;;;;;33.08;15.73;;;13.10;56.30;;;;;;5137871;28;20024;-66
2022/03/22 08:57:44;;;;;;;34.28;17.05;;;13.30;54.90;;;;;;5137821;28;20020;-66
2022/03/22 09:00:11;;;;;;;34.70;16.83;;;13.40;55.20;;;;;;5137709;28;20049;-66
2022/03/22 09:02:43;;;;;;;27.92;16.13;;;13.50;54.30;;;;;;5136660;28;20087;-66
2022/03/22 09:07:58;;;;;;;35.42;17.02;;;13.60;52.50;;;;;;5137726;28;20051;-66
2022/03/22 09:10:30;;;;;;;33.85;17.20;;;13.70;53.40;;;;;;5137637;28;20050;-66
2022/03/22 09:12:57;;;;;;;32.00;16.10;;;13.80;51.90;;;;;;5137525;28;20061;-66
2022/03/22 09:15:26;;;;;;;29.63;16.25;;;14.00;52.10;;;;;;5136354;28;20469;-66
2022/03/22 09:17:52;;;;;;;30.42;16.27;;;14.00;52.70;;;;;;5137406;28;20113;-67
2022/03/22 09:20:19;;;;;;;28.10;15.93;;;14.20;52.90;;;;;;5137399;28;20049;-66
2022/03/22 09:22:48;;;;;;;28.30;16.35;;;14.30;52.60;;;;;;5137333;28;20042;-66
2022/03/22 09:25:20;;;;;;;32.97;16.50;;;14.40;51.40;;;;;;5137309;28;20053;-66
2022/03/22 09:27:46;;;;;;;29.23;16.85;;;14.50;54.10;;;;;;5137386;28;20023;-66
2022/03/22 09:30:12;;;;;;;32.53;17.27;;;14.60;51.90;;;;;;5137336;28;20028;-66
2022/03/22 09:32:41;;;;;;;32.03;17.25;;;14.80;51.00;;;;;;5137085;28;20049;-66
2022/03/22 09:35:10;;;;;;;28.75;16.60;;;14.90;51.30;;;;;;5137060;28;20491;-66
2022/03/22 09:37:41;;;;;;;34.55;16.15;;;15.10;51.00;;;;;;5137028;28;20031;-66
2022/03/22 09:40:08;;;;;;;31.98;17.63;;;15.30;51.70;;;;;;5135977;28;20024;-66
2022/03/22 09:42:34;;;;;;;33.90;17.05;;;15.40;50.40;;;;;;5136930;28;20028;-66
2022/03/22 09:45:00;;;;;;;33.15;17.67;;;15.50;50.60;;;;;;5136896;28;20408;-65
2022/03/22 09:47:27;;;;;;;34.20;17.35;;;15.60;47.60;;;;;;5136792;28;20027;-65
2022/03/22 09:49:56;;;;;;;30.45;16.92;;;15.50;46.90;;;;;;5136803;28;20024;-65
2022/03/22 09:52:23;;;;;;;31.42;17.92;;;15.60;46.20;;;;;;5136698;28;20050;-65
2022/03/22 09:54:49;;;;;;;39.70;17.35;;;15.70;48.30;;;;;;5135584;28;20102;-65
2022/03/22 09:57:15;;;;;;;34.50;18.25;;;15.80;47.80;;;;;;5136683;28;20020;-65
2022/03/22 09:59:41;;;;;;;32.35;17.50;;;15.90;48.10;;;;;;5135545;28;20012;-65
2022/03/22 10:02:06;;;;;;;33.00;16.98;;;16.10;47.20;;;;;;5136547;28;20031;-66
2022/03/22 10:04:37;;;;;;;33.60;18.25;;;16.10;46.00;;;;;;5136687;28;20031;-66
2022/03/22 10:07:05;;;;;;;30.08;16.67;;;16.20;46.30;;;;;;5136621;28;20484;-66
2022/03/22 10:09:33;;;;;;;27.08;15.88;;;16.30;45.70;;;;;;5136464;28;20022;-65
2022/03/22 10:12:00;;;;;;;30.40;16.20;;;16.40;45.00;;;;;;5136363;28;20142;-65
2022/03/22 10:14:32;;;;;;;32.60;16.17;;;16.50;45.40;;;;;;5136295;28;20029;-66
2022/03/22 10:16:58;;;;;;;30.77;16.73;;;16.50;44.20;;;;;;5136146;28;20069;-65
2022/03/22 10:19:25;;;;;;;32.28;16.90;;;16.60;45.20;;;;;;5135276;28;20035;-66
2022/03/22 10:21:53;;;;;;;31.60;17.27;;;16.60;43.30;;;;;;5136145;28;20058;-66
2022/03/22 10:24:20;;;;;;;31.42;16.77;;;16.70;44.00;;;;;;5136174;27;20043;-66
2022/03/22 10:26:47;;;;;;;34.95;16.98;;;16.80;43.40;;;;;;5135188;28;20026;-65
2022/03/22 10:29:16;;;;;;;30.48;16.52;;;16.80;44.20;;;;;;5136008;28;20050;-66
2022/03/22 10:31:43;;;;;;;29.55;16.17;;;16.80;43.10;;;;;;5136004;28;20043;-66
2022/03/22 10:34:12;;;;;;;30.55;16.38;;;17.00;43.40;;;;;;5135965;28;20088;-65
2022/03/22 10:36:39;;;;;;;30.38;17.65;;;17.10;42.90;;;;;;5136005;28;20008;-66
2022/03/22 10:39:08;;;;;;;30.58;16.45;;;17.20;44.20;;;;;;5135877;28;20055;-65
2022/03/22 10:41:43;;;;;;;30.70;17.05;;;17.30;44.30;;;;;;5135788;28;20020;-65
2022/03/22 10:44:14;;;;;;;33.67;17.65;;;17.50;44.00;;;;;;5135856;28;20039;-65
2022/03/22 10:46:44;;;;;;;30.38;15.98;;;17.50;41.00;;;;;;5135716;28;20031;-66
2022/03/22 10:49:12;;;;;;;30.38;17.17;;;17.50;41.60;;;;;;5135625;28;20043;-66
2022/03/22 10:51:42;;;;;;;31.95;17.45;;;17.60;41.80;;;;;;5135641;28;20031;-66
2022/03/22 10:54:12;;;;;;;31.75;17.75;;;17.70;38.80;;;;;;5135459;28;20392;-65
2022/03/22 10:56:44;;;;;;;31.10;16.05;;;17.70;39.70;;;;;;5134580;28;20027;-65
2022/03/22 10:59:13;;;;;;;30.77;16.70;;;17.70;41.00;;;;;;5135494;28;20027;-65
2022/03/22 11:01:41;;;;;;;39.28;18.15;;;17.70;41.00;;;;;;5135449;28;20019;-65
2022/03/22 11:04:08;;;;;;;30.75;15.55;;;17.70;40.40;;;;;;5135370;28;20073;-66
2022/03/22 11:06:35;;;;;;;30.05;15.27;;;17.70;39.80;;;;;;5133848;28;20031;-65
2022/03/22 11:09:01;;;;;;;32.05;15.05;;;17.70;40.10;;;;;;5134204;28;20038;-65
2022/03/22 11:11:30;;;;;;;29.13;15.10;;;17.80;39.80;;;;;;5135210;28;20034;-66
2022/03/22 11:13:56;;;;;;;31.88;15.32;;;17.80;39.40;;;;;;5135148;28;20049;-66
2022/03/22 11:16:24;;;;;;;29.20;15.10;;;17.80;38.90;;;;;;5133933;28;20040;-66
2022/03/22 11:18:51;;;;;;;28.90;14.60;;;17.90;39.90;;;;;;5135118;28;20028;-65
2022/03/22 11:21:19;;;;;;;29.08;14.30;;;18.10;39.70;;;;;;5135065;28;20024;-65
2022/03/22 11:23:47;;;;;;;31.73;15.25;;;18.20;38.20;;;;;;5134991;28;20035;-65
2022/03/22 11:26:20;;;;;;;30.95;15.68;;;18.20;38.60;;;;;;5134935;28;20024;-65
2022/03/22 11:28:48;;;;;;;29.80;15.38;;;18.30;39.60;;;;;;5117051;28;20139;-65
2022/03/22 11:31:16;;;;;;;29.83;15.93;;;18.40;39.30;;;;;;5133782;28;20028;-65
2022/03/22 11:36:41;;;;;;;29.30;15.02;;;18.60;38.50;;;;;;5134868;28;20090;-65
2022/03/22 11:39:07;;;;;;;28.95;14.90;;;18.60;38.00;;;;;;5134766;28;20046;-65
2022/03/22 11:44:21;;;;;;;29.55;15.65;;;18.60;38.60;;;;;;5134708;28;20046;-65
2022/03/22 11:47:07;;;;;;;26.55;14.02;;;18.80;37.70;;;;;;5133516;28;20054;-65
2022/03/22 11:50:02;;;;;;;29.20;15.25;;;18.80;37.50;;;;;;5134551;28;20464;-65
2022/03/22 11:52:38;;;;;;;28.45;14.27;;;18.80;38.40;;;;;;5134454;28;20020;-65
2022/03/22 11:55:14;;;;;;;26.75;14.07;;;19.00;39.50;;;;;;5134532;28;20045;-65
2022/03/22 11:58:05;;;;;;;26.70;13.75;;;19.20;39.00;;;;;;5134430;28;20016;-65
2022/03/22 12:00:51;;;;;;;28.45;14.07;;;19.40;38.30;;;;;;5134419;28;20020;-65
2022/03/22 12:03:21;;;;;;;27.17;14.27;;;19.30;36.70;;;;;;5134367;28;20056;-65
2022/03/22 12:05:47;;;;;;;25.60;13.88;;;19.20;37.40;;;;;;5134367;28;20024;-65
2022/03/22 12:08:14;;;;;;;27.92;14.77;;;19.30;37.20;;;;;;5134183;28;20043;-65
2022/03/22 12:10:47;;;;;;;25.92;13.52;;;19.40;37.00;;;;;;5134093;28;20035;-65
2022/03/22 12:13:13;;;;;;;26.00;13.52;;;19.60;37.10;;;;;;5133164;28;20031;-65
2022/03/22 12:15:39;;;;;;;27.60;13.18;;;19.70;37.10;;;;;;5133916;28;20038;-65
2022/03/22 12:18:05;;;;;;;28.02;14.77;;;19.90;36.60;;;;;;5132122;28;20032;-65
2022/03/22 12:20:30;;;;;;;28.02;14.50;;;19.90;34.30;;;;;;5133917;28;20035;-65
2022/03/22 12:23:00;;;;;;;29.08;14.18;;;19.60;34.20;;;;;;5134018;28;20015;-66
2022/03/22 12:25:28;;;;;;;26.73;14.30;;;19.70;33.70;;;;;;5133972;28;20027;-65
2022/03/22 12:28:03;;;;;;;28.55;13.70;;;19.80;35.00;;;;;;5133835;28;20020;-65
2022/03/22 12:30:35;;;;;;;23.33;12.52;;;19.80;35.20;;;;;;5132993;28;20021;-65
2022/03/22 12:33:03;;;;;;;27.50;13.93;;;19.90;34.80;;;;;;5132778;28;20028;-64
2022/03/22 12:35:30;;;;;;;24.90;14.02;;;20.10;34.40;;;;;;5133837;28;20076;-65
2022/03/22 12:37:57;;;;;;;25.80;13.90;;;20.10;34.20;;;;;;5133869;28;20020;-66
2022/03/22 12:40:23;;;;;;;28.25;15.82;;;20.20;35.10;;;;;;5133799;28;20019;-66
2022/03/22 12:42:50;;;;;;;26.63;14.15;;;20.30;33.90;;;;;;5133740;28;20027;-66
2022/03/22 12:45:18;;;;;;;26.77;12.80;;;20.20;31.90;;;;;;5133782;28;20057;-66
2022/03/22 12:47:44;;;;;;;25.45;12.30;;;20.10;33.40;;;;;;5133770;28;20043;-66
2022/03/22 12:50:12;;;;;;;24.48;12.93;;;20.00;32.30;;;;;;5133680;28;20062;-66
2022/03/22 12:52:38;;;;;;;24.90;13.00;;;20.00;32.20;;;;;;5133698;28;20024;-66
2022/03/22 12:55:06;;;;;;;24.90;12.30;;;20.10;32.90;;;;;;5133514;28;20566;-66
2022/03/22 12:57:33;;;;;;;26.25;13.73;;;20.00;32.00;;;;;;5133767;28;20083;-66
2022/03/22 13:00:00;;;;;;;24.17;12.43;;;20.00;31.20;;;;;;5132537;28;20061;-65
2022/03/22 13:02:26;;;;;;;23.45;12.07;;;20.10;31.60;;;;;;5133621;28;20031;-65